Time;durP1;ratioP1;P1;durP2;ratioP2;P2;SDS_P1;SDS_P2;PMS_P1;PMS_P2;Temp;Humidity;BMP_temperature;BMP_pressure;BME280_temperature;BME280_humidity;BME280_pressure;Samples;Min_cycle;Max_cycle;Signal;HPM_P1;HPM_P2
2023/07/23 00:00:09;;;;;;;;;;;;;;;25.64;33.37;101174.09;5066818;28;19923;-86
2023/07/23 00:02:35;;;;;;;;;;;;;;;25.61;33.56;101172.84;5066229;28;19961;-85
2023/07/23 00:05:00;;;;;;;;;;;;;;;25.58;33.66;101181.75;5052424;28;19916;-85
2023/07/23 00:07:25;;;;;;;;;;;;;;;25.53;34.14;101184.72;5051547;28;19925;-85
2023/07/23 00:09:51;;;;;;;;;;;;;;;25.44;34.02;101184.81;5065040;28;19928;-85
2023/07/23 00:12:16;;;;;;;;;;;;;;;25.37;34.39;101198.28;5064094;28;19974;-86
2023/07/23 00:14:41;;;;;;;;;;;;;;;25.35;34.33;101192.31;5064401;28;20300;-84
2023/07/23 00:17:08;;;;;;;;;;;;;;;25.35;34.47;101189.59;5065180;28;21546;-85
2023/07/23 00:19:33;;;;;;;;;;;;;;;25.35;34.13;101189.59;5066640;28;20105;-83
2023/07/23 00:21:58;;;;;;;;;;;;;;;25.34;34.51;101190.72;5069917;28;20459;-85
2023/07/23 00:24:24;;;;;;;;;;;;;;;25.33;34.77;101186.38;5067765;28;19928;-84
2023/07/23 00:26:49;;;;;;;;;;;;;;;25.29;35.03;101182.69;5065298;28;19924;-83
2023/07/23 00:29:14;;;;;;;;;;;;;;;25.26;34.86;101177.88;5069689;28;21578;-84
2023/07/23 00:31:40;;;;;;;;;;;;;;;25.22;35.17;101182.44;5066315;28;19952;-83
2023/07/23 00:34:06;;;;;;;;;;;;;;;25.19;35.25;101185.84;5066177;28;19954;-83
2023/07/23 00:36:31;;;;;;;;;;;;;;;25.15;35.44;101187.66;5062836;28;19920;-85
2023/07/23 00:38:57;;;;;;;;;;;;;;;25.11;35.46;101192.19;5068721;28;20327;-83
2023/07/23 00:41:22;;;;;;;;;;;;;;;25.08;35.55;101199.16;5065718;28;20407;-83
2023/07/23 00:43:47;;;;;;;;;;;;;;;25.06;35.94;101195.16;5065353;28;19967;-82
2023/07/23 00:46:13;;;;;;;;;;;;;;;25.03;36.21;101191.16;5046818;28;19916;-82
2023/07/23 00:48:38;;;;;;;;;;;;;;;25.00;36.44;101180.84;5065757;28;20390;-83
2023/07/23 00:51:04;;;;;;;;;;;;;;;24.97;36.56;101165.06;5063503;28;20414;-84
2023/07/23 00:53:29;;;;;;;;;;;;;;;24.93;36.89;101164.09;5069414;28;19939;-83
2023/07/23 00:55:54;;;;;;;;;;;;;;;24.91;36.97;101153.47;5069065;28;19920;-82
2023/07/23 00:58:20;;;;;;;;;;;;;;;24.87;36.80;101149.78;5065592;28;19920;-82
2023/07/23 01:00:46;;;;;;;;;;;;;;;24.82;37.31;101133.56;5064991;28;19921;-82
2023/07/23 01:03:11;;;;;;;;;;;;;;;24.77;37.11;101136.47;5067857;28;21152;-82
2023/07/23 01:05:38;;;;;;;;;;;;;;;24.76;37.09;101131.34;5058349;28;19916;-83
2023/07/23 01:08:04;;;;;;;;;;;;;;;24.73;37.24;101116.38;5063410;28;19924;-83
2023/07/23 01:10:32;;;;;;;;;;;;;;;24.72;37.15;101125.72;5044410;28;19917;-83
2023/07/23 01:12:57;;;;;;;;;;;;;;;24.67;37.94;101117.72;5072957;28;19962;-83
2023/07/23 01:15:22;;;;;;;;;;;;;;;24.63;37.65;101116.78;5071738;28;19920;-82
2023/07/23 01:17:50;;;;;;;;;;;;;;;24.60;37.72;101098.28;5066289;28;19955;-82
2023/07/23 01:20:15;;;;;;;;;;;;;;;24.57;37.72;101086.03;5059643;28;19931;-83
2023/07/23 01:22:41;;;;;;;;;;;;;;;24.53;37.95;101073.34;5063695;28;19920;-83
2023/07/23 01:25:06;;;;;;;;;;;;;;;24.45;38.28;101064.06;5066919;28;19925;-83
2023/07/23 01:27:32;;;;;;;;;;;;;;;24.37;38.81;101056.72;5062415;28;20033;-84
2023/07/23 01:29:57;;;;;;;;;;;;;;;24.31;39.08;101058.84;5062080;28;19917;-82
2023/07/23 01:32:22;;;;;;;;;;;;;;;24.23;39.40;101059.66;5061873;28;20006;-81
2023/07/23 01:34:48;;;;;;;;;;;;;;;24.25;38.49;101057.41;5065793;28;20414;-82
2023/07/23 01:37:14;;;;;;;;;;;;;;;24.28;38.51;101045.81;5044778;28;19921;-82
2023/07/23 01:39:39;;;;;;;;;;;;;;;24.27;38.57;101040.66;5059401;28;20448;-83
2023/07/23 01:42:08;;;;;;;;;;;;;;;24.26;38.64;101041.78;5063991;28;20015;-83
2023/07/23 01:44:33;;;;;;;;;;;;;;;24.25;38.20;101035.53;5063963;28;20027;-84
2023/07/23 01:46:58;;;;;;;;;;;;;;;24.23;38.92;101032.28;5059444;28;20502;-84
2023/07/23 01:49:24;;;;;;;;;;;;;;;24.24;38.42;101028.44;5062350;28;21625;-84
2023/07/23 01:51:49;;;;;;;;;;;;;;;24.24;38.74;101020.22;5060277;28;19946;-84
2023/07/23 01:54:15;;;;;;;;;;;;;;;24.29;38.07;101011.84;5061961;28;20047;-83
2023/07/23 01:56:40;;;;;;;;;;;;;;;24.32;38.21;101011.16;5062794;28;19917;-85
2023/07/23 01:59:07;;;;;;;;;;;;;;;24.32;38.92;101007.63;5056866;28;19932;-85
2023/07/23 02:01:32;;;;;;;;;;;;;;;24.32;38.28;101002.94;5065524;28;19924;-85
2023/07/23 02:03:57;;;;;;;;;;;;;;;24.30;38.23;101002.47;5057086;28;19925;-82
2023/07/23 02:06:23;;;;;;;;;;;;;;;24.25;39.20;101005.41;5062410;28;20688;-86
2023/07/23 02:08:48;;;;;;;;;;;;;;;24.20;39.00;101000.09;5061895;28;19982;-85
2023/07/23 02:11:13;;;;;;;;;;;;;;;24.19;38.68;101003.19;5064905;28;19924;-86
2023/07/23 02:13:39;;;;;;;;;;;;;;;24.14;39.03;100998.72;5061892;28;19932;-86
2023/07/23 02:16:04;;;;;;;;;;;;;;;24.11;39.27;101002.13;5060271;28;19917;-86
2023/07/23 02:18:30;;;;;;;;;;;;;;;24.10;38.87;101008.72;5061798;28;19984;-84
2023/07/23 02:20:56;;;;;;;;;;;;;;;24.12;39.02;101014.66;5067546;28;19924;-85
2023/07/23 02:23:21;;;;;;;;;;;;;;;24.12;39.04;101014.66;5061698;28;19920;-85
2023/07/23 02:25:50;;;;;;;;;;;;;;;24.14;39.07;101017.88;5060813;28;19962;-85
2023/07/23 02:28:15;;;;;;;;;;;;;;;24.14;39.01;101019.81;5065024;28;20900;-85
2023/07/23 02:30:41;;;;;;;;;;;;;;;24.13;39.04;101016.28;5060105;28;19999;-85
2023/07/23 02:33:06;;;;;;;;;;;;;;;24.11;39.13;101021.28;5065527;28;19924;-85
2023/07/23 02:35:35;;;;;;;;;;;;;;;24.08;39.21;101027.44;5062794;28;19920;-86
2023/07/23 02:38:00;;;;;;;;;;;;;;;24.07;39.22;101028.56;5062034;28;19917;-85
2023/07/23 02:40:26;;;;;;;;;;;;;;;24.03;39.18;101036.59;5062125;28;20372;-86
2023/07/23 02:42:51;;;;;;;;;;;;;;;24.00;39.49;101037.28;5063868;28;19925;-85
2023/07/23 02:45:17;;;;;;;;;;;;;;;23.98;39.80;101042.28;5057632;28;20041;-85
2023/07/23 02:47:42;;;;;;;;;;;;;;;23.98;39.55;101044.22;5059344;28;19920;-86
2023/07/23 02:50:08;;;;;;;;;;;;;;;23.93;39.80;101053.44;5062075;28;20830;-86
2023/07/23 02:52:33;;;;;;;;;;;;;;;23.93;39.69;101061.63;5063018;28;20293;-86
2023/07/23 02:54:58;;;;;;;;;;;;;;;23.94;39.69;101074.19;5064844;28;19999;-83
2023/07/23 02:57:23;;;;;;;;;;;;;;;23.91;39.84;101077.59;5059941;28;19916;-84
2023/07/23 02:59:49;;;;;;;;;;;;;;;23.89;40.06;101081.78;5060970;28;19969;-83
2023/07/23 03:02:14;;;;;;;;;;;;;;;23.86;40.16;101082.44;5062115;28;19924;-83
2023/07/23 03:04:41;;;;;;;;;;;;;;;23.84;40.39;101095.63;5063615;28;19979;-84
2023/07/23 03:07:09;;;;;;;;;;;;;;;23.82;40.27;101098.72;5060526;28;19998;-82
2023/07/23 03:09:35;;;;;;;;;;;;;;;23.82;40.16;101098.72;5060873;28;19916;-83
2023/07/23 03:12:00;;;;;;;;;;;;;;;23.84;40.22;101090.16;5063486;28;20273;-83
2023/07/23 03:14:25;;;;;;;;;;;;;;;23.84;40.13;101084.69;5066346;28;19916;-82
2023/07/23 03:16:50;;;;;;;;;;;;;;;23.81;40.27;101078.75;5060667;28;20007;-83
2023/07/23 03:19:16;;;;;;;;;;;;;;;23.80;40.59;101073.59;5066275;28;19969;-83
2023/07/23 03:21:41;;;;;;;;;;;;;;;23.78;40.74;101070.41;5060065;28;19921;-82
2023/07/23 03:24:07;;;;;;;;;;;;;;;23.72;41.15;101064.31;5063812;28;19929;-83
2023/07/23 03:26:32;;;;;;;;;;;;;;;23.71;40.93;101070.94;5060310;28;19925;-83
2023/07/23 03:28:57;;;;;;;;;;;;;;;23.67;41.07;101056.28;5058402;28;19921;-83
2023/07/23 03:31:23;;;;;;;;;;;;;;;23.67;41.37;101059.00;5063057;28;20593;-84
2023/07/23 03:33:48;;;;;;;;;;;;;;;23.66;41.31;101051.94;5062985;28;19924;-83
2023/07/23 03:36:13;;;;;;;;;;;;;;;23.64;41.66;101047.94;5065862;28;20778;-83
2023/07/23 03:38:39;;;;;;;;;;;;;;;23.63;41.79;101043.59;5063534;28;19920;-82
2023/07/23 03:41:04;;;;;;;;;;;;;;;23.62;41.77;101042.00;5059378;28;20401;-83
2023/07/23 03:43:29;;;;;;;;;;;;;;;23.63;41.84;101038.13;5061655;28;19925;-83
2023/07/23 03:45:55;;;;;;;;;;;;;;;23.63;41.73;101038.13;5065588;28;19917;-83
2023/07/23 03:48:20;;;;;;;;;;;;;;;23.67;41.64;101047.28;5062842;28;19923;-81
2023/07/23 03:50:45;;;;;;;;;;;;;;;23.67;41.44;101047.28;5060044;28;19927;-84
2023/07/23 03:53:10;;;;;;;;;;;;;;;23.63;41.62;101044.41;5063308;28;20396;-83
2023/07/23 03:55:36;;;;;;;;;;;;;;;23.62;41.67;101050.19;5064245;28;20007;-82
2023/07/23 03:58:01;;;;;;;;;;;;;;;23.59;41.61;101048.13;5065362;28;20006;-82
2023/07/23 04:00:26;;;;;;;;;;;;;;;23.56;41.99;101024.94;5062088;28;19917;-82
2023/07/23 04:02:52;;;;;;;;;;;;;;;23.55;42.11;101023.34;5065372;28;20285;-82
2023/07/23 04:05:17;;;;;;;;;;;;;;;23.56;42.35;101027.69;5067640;28;20420;-83
2023/07/23 04:07:42;;;;;;;;;;;;;;;23.56;42.36;101027.69;5068238;28;19917;-82
2023/07/23 04:10:08;;;;;;;;;;;;;;;23.57;42.52;101023.84;5061957;28;19971;-83
2023/07/23 04:12:33;;;;;;;;;;;;;;;23.57;42.61;101023.03;5062322;28;20007;-82
2023/07/23 04:15:00;;;;;;;;;;;;;;;23.58;42.60;101016.44;5070971;28;19924;-82
2023/07/23 04:17:25;;;;;;;;;;;;;;;23.61;42.60;101018.50;5065966;28;19948;-82
2023/07/23 04:19:50;;;;;;;;;;;;;;;23.62;42.49;101018.19;5066057;28;20477;-83
2023/07/23 04:22:16;;;;;;;;;;;;;;;23.63;42.50;101016.25;5062688;28;19932;-83
2023/07/23 04:24:41;;;;;;;;;;;;;;;23.64;42.66;101009.63;5073499;28;19916;-82
2023/07/23 04:27:06;;;;;;;;;;;;;;;23.66;42.70;101012.84;5062328;28;19920;-83
2023/07/23 04:29:32;;;;;;;;;;;;;;;23.69;42.58;101014.91;5065635;28;20288;-82
2023/07/23 04:31:57;;;;;;;;;;;;;;;23.70;42.45;101019.28;5059774;28;19924;-82
2023/07/23 04:34:22;;;;;;;;;;;;;;;23.70;42.50;101014.63;5065766;28;19917;-82
2023/07/23 04:36:51;;;;;;;;;;;;;;;23.71;42.57;101018.94;5058053;28;20339;-83
2023/07/23 04:39:17;;;;;;;;;;;;;;;23.73;42.47;101019.41;5067537;28;20011;-83
2023/07/23 04:41:42;;;;;;;;;;;;;;;23.76;42.38;101007.81;5060937;28;20019;-82
2023/07/23 04:44:07;;;;;;;;;;;;;;;23.77;42.49;101009.41;5063737;28;19990;-82
2023/07/23 04:46:33;;;;;;;;;;;;;;;23.78;42.77;101008.28;5061767;28;19917;-83
2023/07/23 04:48:58;;;;;;;;;;;;;;;23.80;42.64;101002.47;5062670;28;19920;-83
2023/07/23 04:51:24;;;;;;;;;;;;;;;23.84;42.73;101002.59;5066781;28;19916;-82
2023/07/23 04:53:49;;;;;;;;;;;;;;;23.85;42.83;101006.94;5060276;28;19920;-82
2023/07/23 04:56:14;;;;;;;;;;;;;;;23.86;42.92;101006.59;5062657;28;20656;-83
2023/07/23 04:58:40;;;;;;;;;;;;;;;23.87;42.75;101004.69;5062653;28;19960;-83
2023/07/23 05:01:09;;;;;;;;;;;;;;;23.88;42.85;101003.53;5061471;28;19969;-82
2023/07/23 05:03:35;;;;;;;;;;;;;;;23.83;42.89;100993.59;5061340;28;19922;-82
2023/07/23 05:06:01;;;;;;;;;;;;;;;23.80;43.05;101000.53;5062681;28;19917;-82
2023/07/23 05:08:27;;;;;;;;;;;;;;;23.77;42.98;101003.13;5060663;28;19916;-83
2023/07/23 05:10:57;;;;;;;;;;;;;;;23.70;43.09;101003.66;5062344;28;20347;-83
2023/07/23 05:13:22;;;;;;;;;;;;;;;23.67;42.98;101007.03;5062672;28;19920;-83
2023/07/23 05:15:47;;;;;;;;;;;;;;;23.64;43.60;100996.75;5058415;28;19923;-82
2023/07/23 05:18:13;;;;;;;;;;;;;;;23.66;43.53;101004.63;5059977;28;19928;-82
2023/07/23 05:20:38;;;;;;;;;;;;;;;23.70;43.45;100992.72;5061907;28;19924;-83
2023/07/23 05:23:03;;;;;;;;;;;;;;;23.75;43.64;100989.78;5056484;28;19928;-83
2023/07/23 05:25:29;;;;;;;;;;;;;;;23.81;43.43;100995.88;5063937;28;20447;-83
2023/07/23 05:27:54;;;;;;;;;;;;;;;23.88;43.42;100984.38;5057971;28;19921;-84
2023/07/23 05:30:21;;;;;;;;;;;;;;;23.94;43.25;100981.16;5059215;28;19924;-83
2023/07/23 05:32:47;;;;;;;;;;;;;;;24.00;43.27;100981.75;5061838;28;19924;-84
2023/07/23 05:35:12;;;;;;;;;;;;;;;24.02;42.96;100983.00;5060543;28;19924;-84
2023/07/23 05:37:37;;;;;;;;;;;;;;;24.06;43.23;100980.44;5061950;28;19923;-83
2023/07/23 05:40:06;;;;;;;;;;;;;;;24.09;43.22;100977.03;5059406;28;20668;-83
2023/07/23 05:42:31;;;;;;;;;;;;;;;24.09;42.77;100982.50;5064317;28;20357;-83
2023/07/23 05:44:57;;;;;;;;;;;;;;;24.05;42.96;100976.06;5068042;28;19923;-83
2023/07/23 05:47:22;;;;;;;;;;;;;;;24.04;43.34;100980.72;5060911;28;19920;-84
2023/07/23 05:49:47;;;;;;;;;;;;;;;24.06;43.13;100977.69;5058523;28;20391;-83
2023/07/23 05:52:13;;;;;;;;;;;;;;;24.11;43.34;100980.22;5054745;28;20425;-84
2023/07/23 05:54:38;;;;;;;;;;;;;;;24.17;43.19;100984.34;5062179;28;19920;-85
2023/07/23 05:57:03;;;;;;;;;;;;;;;24.23;42.91;100984.94;5062051;28;19928;-84
2023/07/23 05:59:29;;;;;;;;;;;;;;;24.27;42.96;100983.16;5059444;28;19925;-82
2023/07/23 06:01:54;;;;;;;;;;;;;;;24.29;42.73;100983.66;5061248;28;19929;-84
2023/07/23 06:04:20;;;;;;;;;;;;;;;24.30;42.53;100983.31;5061007;28;19920;-86
2023/07/23 06:06:45;;;;;;;;;;;;;;;24.32;42.46;100989.25;5054966;28;19944;-87
2023/07/23 06:09:11;;;;;;;;;;;;;;;24.32;42.54;100983.78;5066501;28;20009;-84
2023/07/23 06:11:37;;;;;;;;;;;;;;;24.30;42.54;100994.28;5062109;28;20006;-83
2023/07/23 06:14:02;;;;;;;;;;;;;;;24.31;42.49;100987.66;5060824;28;20308;-83
2023/07/23 06:16:29;;;;;;;;;;;;;;;24.30;42.63;100983.31;5061885;28;20370;-87
2023/07/23 06:18:54;;;;;;;;;;;;;;;24.33;42.50;100981.84;5065949;28;19920;-83
2023/07/23 06:21:19;;;;;;;;;;;;;;;24.36;42.44;100989.38;5063425;28;19923;-84
2023/07/23 06:23:45;;;;;;;;;;;;;;;24.39;42.29;100989.50;5055160;28;19921;-84
2023/07/23 06:26:10;;;;;;;;;;;;;;;24.37;42.52;100991.78;5055784;28;20372;-83
2023/07/23 06:28:35;;;;;;;;;;;;;;;24.39;42.47;100989.50;5057763;28;20277;-86
2023/07/23 06:31:01;;;;;;;;;;;;;;;24.45;42.41;100987.38;5058291;28;20376;-84
2023/07/23 06:33:27;;;;;;;;;;;;;;;24.56;42.28;100987.75;5060079;28;19920;-83
2023/07/23 06:35:53;;;;;;;;;;;;;;;24.68;42.26;100977.66;5055622;28;19988;-84
2023/07/23 06:38:18;;;;;;;;;;;;;;;24.85;42.16;100979.41;5057823;28;20399;-84
2023/07/23 06:40:44;;;;;;;;;;;;;;;25.02;42.12;100975.72;5064679;28;19920;-83
2023/07/23 06:43:09;;;;;;;;;;;;;;;25.20;41.96;100982.59;5056924;28;20404;-82
2023/07/23 06:45:35;;;;;;;;;;;;;;;25.34;41.49;100976.78;5061901;28;19995;-83
2023/07/23 06:48:00;;;;;;;;;;;;;;;25.40;41.40;100978.16;5061270;28;19923;-84
2023/07/23 06:50:25;;;;;;;;;;;;;;;25.37;41.48;100986.28;5061404;28;19916;-85
2023/07/23 06:52:51;;;;;;;;;;;;;;;25.41;41.40;100977.00;5060664;28;20416;-85
2023/07/23 06:55:16;;;;;;;;;;;;;;;25.48;41.40;100981.91;5061227;28;20007;-83
2023/07/23 06:57:41;;;;;;;;;;;;;;;25.59;41.02;100980.31;5059999;28;20008;-82
2023/07/23 07:00:07;;;;;;;;;;;;;;;25.65;40.81;100975.41;5062271;28;19920;-83
2023/07/23 07:02:33;;;;;;;;;;;;;;;25.69;40.91;100979.91;5065106;28;19932;-83
2023/07/23 07:04:59;;;;;;;;;;;;;;;25.74;40.67;100978.88;5064145;28;20433;-83
2023/07/23 07:07:24;;;;;;;;;;;;;;;25.69;40.44;100985.41;5065612;28;19917;-85
2023/07/23 07:09:52;;;;;;;;;;;;;;;25.68;40.54;100985.75;5057052;28;19962;-85
2023/07/23 07:12:17;;;;;;;;;;;;;;;25.71;40.30;100985.06;5065760;28;20053;-84
2023/07/23 07:14:42;;;;;;;;;;;;;;;25.77;40.20;100994.63;5062352;28;20015;-87
2023/07/23 07:17:07;;;;;;;;;;;;;;;25.86;40.27;100982.41;5064860;28;20273;-85
2023/07/23 07:19:33;;;;;;;;;;;;;;;26.06;39.96;100988.88;5065979;28;19956;-85
2023/07/23 07:21:58;;;;;;;;;;;;;;;26.20;39.88;100985.72;5049067;28;19960;-84
2023/07/23 07:24:23;;;;;;;;;;;;;;;26.35;39.98;100992.47;5058497;28;19923;-83
2023/07/23 07:26:49;;;;;;;;;;;;;;;26.51;39.74;100985.09;5061728;28;20004;-87
2023/07/23 07:29:14;;;;;;;;;;;;;;;26.67;39.33;100982.38;5064485;28;19917;-85
2023/07/23 07:31:39;;;;;;;;;;;;;;;26.75;39.27;100985.00;5060734;28;19928;-84
2023/07/23 07:34:05;;;;;;;;;;;;;;;26.83;38.79;100990.66;5061402;28;19951;-83
2023/07/23 07:36:30;;;;;;;;;;;;;;;26.82;38.66;100987.13;5066726;28;19960;-86
2023/07/23 07:38:55;;;;;;;;;;;;;;;26.83;38.27;100985.97;5061789;28;19920;-83
2023/07/23 07:41:20;;;;;;;;;;;;;;;26.87;38.33;100984.09;5061674;28;20074;-84
2023/07/23 07:43:46;;;;;;;;;;;;;;;27.01;38.19;100975.47;5061165;28;20261;-84
2023/07/23 07:46:11;;;;;;;;;;;;;;;27.15;38.04;100975.03;5060824;28;19917;-83
2023/07/23 07:48:37;;;;;;;;;;;;;;;27.31;37.77;100967.59;5060258;28;19935;-83
2023/07/23 07:51:04;;;;;;;;;;;;;;;27.49;37.61;100968.81;5057906;28;19962;-85
2023/07/23 07:53:30;;;;;;;;;;;;;;;27.73;37.50;100953.25;5061767;28;19932;-84
2023/07/23 07:55:56;;;;;;;;;;;;;;;27.95;37.13;100961.63;5057287;28;19916;-83
2023/07/23 07:58:24;;;;;;;;;;;;;;;28.14;36.50;100957.28;5056170;28;19916;-84
2023/07/23 08:01:00;;;;;;;;;;;;;;;28.24;36.26;100951.22;5060537;28;19920;-83
2023/07/23 08:03:26;;;;;;;;;;;;;;;28.27;36.23;100953.25;5056702;28;20631;-83
2023/07/23 08:05:52;;;;;;;;;;;;;;;28.26;36.10;100946.16;5060867;28;19924;-84
2023/07/23 08:08:38;;;;;;;;;;;;;;;28.23;35.90;100941.34;5061506;28;19971;-83
2023/07/23 08:11:06;;;;;;;;;;;;;;;28.25;35.96;100944.53;5056104;28;20427;-83
2023/07/23 08:13:32;;;;;;;;;;;;;;;28.42;35.69;100944.13;5061134;28;19917;-84
2023/07/23 08:15:57;;;;;;;;;;;;;;;28.65;35.55;100943.34;5059068;28;19917;-83
2023/07/23 08:18:24;;;;;;;;;;;;;;;28.87;35.54;100937.09;5055323;28;19920;-86
2023/07/23 08:20:49;;;;;;;;;;;;;;;29.00;35.21;100935.75;5053074;28;19982;-85
2023/07/23 08:23:15;;;;;;;;;;;;;;;29.25;34.96;100943.63;5057802;28;19921;-84
2023/07/23 08:25:41;;;;;;;;;;;;;;;29.44;34.44;100943.53;5059722;28;19924;-84
2023/07/23 08:28:07;;;;;;;;;;;;;;;29.55;34.02;100949.25;5057888;28;19936;-84
2023/07/23 08:30:32;;;;;;;;;;;;;;;29.61;34.07;100948.53;5062420;28;20224;-87
2023/07/23 08:32:59;;;;;;;;;;;;;;;29.68;33.85;100948.66;5058217;28;19916;-84
2023/07/23 08:35:25;;;;;;;;;;;;;;;29.72;33.40;100941.22;5059882;28;19920;-84
2023/07/23 08:37:51;;;;;;;;;;;;;;;29.77;32.94;100940.88;5061394;28;19974;-83
2023/07/23 08:40:17;;;;;;;;;;;;;;;29.73;33.34;100939.25;5057301;28;19924;-87
2023/07/23 08:42:54;;;;;;;;;;;;;;;29.76;32.49;100939.28;5060016;28;20114;-86
2023/07/23 08:45:34;;;;;;;;;;;;;;;29.64;32.07;100933.22;5052522;28;19920;-84
2023/07/23 08:48:16;;;;;;;;;;;;;;;29.48;32.41;100947.19;5055923;28;19921;-86
2023/07/23 08:50:45;;;;;;;;;;;;;;;29.42;32.43;100940.34;5057673;28;20154;-84
2023/07/23 08:53:14;;;;;;;;;;;;;;;29.47;32.42;100943.63;5059208;28;19923;-86
2023/07/23 08:55:41;;;;;;;;;;;;;;;29.63;32.22;100939.91;5060601;28;19920;-85
2023/07/23 08:58:06;;;;;;;;;;;;;;;29.76;32.00;100933.78;5062683;28;20380;-85
2023/07/23 09:00:32;;;;;;;;;;;;;;;29.78;31.27;100942.47;5057677;28;19927;-87
2023/07/23 09:03:03;;;;;;;;;;;;;;;29.74;32.09;100940.84;5061080;28;20307;-85
2023/07/23 09:05:28;;;;;;;;;;;;;;;29.72;31.68;100949.50;5057709;28;20380;-86
2023/07/23 09:07:54;;;;;;;;;;;;;;;29.72;32.16;100937.66;5058465;28;19917;-86
2023/07/23 09:10:19;;;;;;;;;;;;;;;29.75;31.84;100937.69;5059272;28;19959;-84
2023/07/23 09:12:44;;;;;;;;;;;;;;;29.77;32.14;100935.34;5062889;28;20503;-86
2023/07/23 09:15:12;;;;;;;;;;;;;;;29.76;32.18;100939.28;5061412;28;19916;-85
2023/07/23 09:17:37;;;;;;;;;;;;;;;29.85;32.17;100950.06;5056558;28;19920;-82
2023/07/23 09:20:02;;;;;;;;;;;;;;;29.78;31.91;100945.22;5059546;28;19920;-82
2023/07/23 09:22:32;;;;;;;;;;;;;;;29.72;31.67;100941.22;5060842;28;19925;-85
2023/07/23 09:24:57;;;;;;;;;;;;;;;29.69;31.44;100941.97;5053063;28;19916;-85
2023/07/23 09:27:23;;;;;;;;;;;;;;;29.73;31.97;100945.56;5056423;28;19932;-88
2023/07/23 09:29:48;;;;;;;;;;;;;;;29.76;31.73;100946.78;5059205;28;19928;-86
2023/07/23 09:32:23;;;;;;;;;;;;;;;29.82;31.72;100950.81;5058499;28;19916;-84
2023/07/23 09:34:49;;;;;;;;;;;;;;;29.71;31.87;100942.38;5059050;28;20356;-83
2023/07/23 09:37:15;;;;;;;;;;;;;;;29.57;31.46;100944.94;5056494;28;20015;-83
2023/07/23 09:39:41;;;;;;;;;;;;;;;29.34;31.08;100941.41;5057467;28;20392;-83
2023/07/23 09:42:06;;;;;;;;;;;;;;;29.20;31.78;100950.25;5057152;28;20020;-83
2023/07/23 09:44:31;;;;;;;;;;;;;;;28.99;31.53;100947.16;5065462;28;19917;-83
2023/07/23 09:46:58;;;;;;;;;;;;;;;29.00;32.01;100948.72;5062655;28;20090;-85
2023/07/23 09:49:27;;;;;;;;;;;;;;;28.97;31.87;100953.03;5060596;28;19920;-83
2023/07/23 09:51:52;;;;;;;;;;;;;;;28.93;31.10;100957.69;5052090;28;19916;-85
2023/07/23 09:54:19;;;;;;;;;;;;;;;28.85;31.62;100940.19;5059922;28;19921;-86
2023/07/23 09:56:45;;;;;;;;;;;;;;;28.84;31.70;100948.81;5060093;28;19921;-88
2023/07/23 09:59:11;;;;;;;;;;;;;;;28.79;31.78;100940.84;5057012;28;19931;-84
2023/07/23 10:01:36;;;;;;;;;;;;;;;28.81;31.94;100950.34;5058194;28;19928;-84
2023/07/23 10:04:02;;;;;;;;;;;;;;;28.88;31.73;100944.97;5055511;28;20011;-83
2023/07/23 10:06:28;;;;;;;;;;;;;;;28.96;31.79;100948.69;5062909;28;19920;-85
2023/07/23 10:08:54;;;;;;;;;;;;;;;29.01;31.54;100947.56;5058963;28;20003;-91
2023/07/23 10:11:19;;;;;;;;;;;;;;;28.99;31.47;100944.38;5057960;28;20415;-83
2023/07/23 10:13:47;;;;;;;;;;;;;;;28.93;31.70;100948.63;5059950;28;19924;-85
2023/07/23 10:16:18;;;;;;;;;;;;;;;28.80;31.47;100947.97;5060990;28;19928;-86
2023/07/23 10:18:44;;;;;;;;;;;;;;;28.81;31.70;100938.53;5060913;28;19920;-83
2023/07/23 10:21:10;;;;;;;;;;;;;;;28.85;31.51;100931.09;5063208;28;20351;-86
2023/07/23 10:23:37;;;;;;;;;;;;;;;28.88;31.60;100930.41;5064252;28;19975;-85
2023/07/23 10:26:17;;;;;;;;;;;;;;;28.89;31.34;100932.00;5061639;28;19916;-84
2023/07/23 10:28:42;;;;;;;;;;;;;;;28.93;31.14;100923.81;5060911;28;20054;-87
2023/07/23 10:31:28;;;;;;;;;;;;;;;28.97;31.40;100916.38;5073116;28;20026;-86
2023/07/23 10:33:54;;;;;;;;;;;;;;;29.14;31.08;100926.91;5067270;28;19920;-85
2023/07/23 10:36:21;;;;;;;;;;;;;;;29.32;31.37;100921.66;5068421;28;20015;-84
2023/07/23 10:38:47;;;;;;;;;;;;;;;29.44;31.16;100913.16;5066107;28;20503;-87
2023/07/23 10:41:13;;;;;;;;;;;;;;;29.54;30.86;100911.75;5069641;28;19935;-86
2023/07/23 10:43:38;;;;;;;;;;;;;;;29.58;30.79;100907.88;5065229;28;19928;-85
2023/07/23 10:46:04;;;;;;;;;;;;;;;29.66;30.71;100901.31;5062082;28;19921;-87
2023/07/23 10:48:37;;;;;;;;;;;;;;;29.72;31.13;100899.00;5065497;28;19920;-86
2023/07/23 10:51:02;;;;;;;;;;;;;;;29.73;30.81;100904.16;5062956;28;20034;-84
2023/07/23 10:53:31;;;;;;;;;;;;;;;29.65;30.63;100896.94;5061596;28;20019;-83
2023/07/23 10:55:58;;;;;;;;;;;;;;;29.60;30.79;100886.22;5058911;28;19932;-85
2023/07/23 10:58:24;;;;;;;;;;;;;;;29.51;30.89;100880.19;5062945;28;19920;-83
2023/07/23 11:00:54;;;;;;;;;;;;;;;29.44;30.49;100882.78;5059213;28;20510;-86
2023/07/23 11:03:20;;;;;;;;;;;;;;;29.47;30.42;100876.59;5061973;28;20027;-84
2023/07/23 11:05:46;;;;;;;;;;;;;;;29.56;30.60;100870.78;5064462;28;19970;-88
2023/07/23 11:08:13;;;;;;;;;;;;;;;29.67;30.62;100867.00;5061829;28;20439;-86
2023/07/23 11:10:45;;;;;;;;;;;;;;;29.78;30.31;100869.88;5056399;28;19921;-85
2023/07/23 11:13:10;;;;;;;;;;;;;;;29.88;30.19;100860.16;5056636;28;19920;-85
2023/07/23 11:15:36;;;;;;;;;;;;;;;30.03;30.07;100853.63;5059797;28;19982;-84
2023/07/23 11:18:02;;;;;;;;;;;;;;;30.10;30.28;100858.44;5056160;28;19921;-87
2023/07/23 11:20:27;;;;;;;;;;;;;;;30.19;30.30;100848.69;5062505;28;20291;-85
2023/07/23 11:22:52;;;;;;;;;;;;;;;30.29;30.01;100845.22;5057699;28;20109;-87
2023/07/23 11:25:18;;;;;;;;;;;;;;;30.29;29.22;100845.22;5057980;28;19927;-84
2023/07/23 11:27:43;;;;;;;;;;;;;;;30.38;29.62;100842.97;5064537;28;19920;-86
2023/07/23 11:30:12;;;;;;;;;;;;;;;30.43;29.47;100849.31;5064321;28;19924;-85
2023/07/23 11:32:38;;;;;;;;;;;;;;;30.51;29.77;100832.41;5057812;28;19973;-86
2023/07/23 11:35:03;;;;;;;;;;;;;;;30.61;29.61;100834.50;5059119;28;20404;-86
2023/07/23 11:37:28;;;;;;;;;;;;;;;30.61;29.34;100834.50;5057985;28;20305;-84
2023/07/23 11:39:55;;;;;;;;;;;;;;;30.65;29.32;100829.00;5060331;28;19960;-87
2023/07/23 11:42:20;;;;;;;;;;;;;;;30.73;29.25;100825.13;5062246;28;19938;-82
2023/07/23 11:44:58;;;;;;;;;;;;;;;30.80;29.31;100822.41;5063067;28;19928;-83
2023/07/23 11:47:24;;;;;;;;;;;;;;;30.90;28.99;100823.69;5056008;28;19920;-83
2023/07/23 11:49:49;;;;;;;;;;;;;;;30.94;28.92;100816.19;5055737;28;20285;-86
2023/07/23 11:52:21;;;;;;;;;;;;;;;30.97;28.96;100823.72;5063207;28;19923;-85
2023/07/23 11:54:46;;;;;;;;;;;;;;;31.00;28.78;100816.63;5074404;28;20509;-86
2023/07/23 11:57:12;;;;;;;;;;;;;;;31.03;28.71;100821.38;5056270;28;19920;-86
2023/07/23 11:59:39;;;;;;;;;;;;;;;30.99;28.34;100815.81;5060246;28;19973;-86
2023/07/23 12:02:04;;;;;;;;;;;;;;;30.99;28.54;100815.81;5056012;28;19991;-85
2023/07/23 12:04:36;;;;;;;;;;;;;;;31.02;28.34;100798.44;5057002;28;20408;-87
2023/07/23 12:07:01;;;;;;;;;;;;;;;31.08;28.45;100798.91;5059011;28;19971;-85
2023/07/23 12:09:27;;;;;;;;;;;;;;;31.12;28.35;100789.41;5058049;28;19920;-86
2023/07/23 12:11:52;;;;;;;;;;;;;;;31.17;28.16;100788.25;5058054;28;20412;-87
2023/07/23 12:14:17;;;;;;;;;;;;;;;31.23;27.95;100784.75;5057924;28;20392;-87
2023/07/23 12:16:46;;;;;;;;;;;;;;;31.20;27.91;100780.00;5056843;28;20961;-85
2023/07/23 12:19:18;;;;;;;;;;;;;;;31.17;28.13;100782.72;5056978;28;19963;-85
2023/07/23 12:21:47;;;;;;;;;;;;;;;31.22;28.23;100782.38;5060446;28;20486;-83
2023/07/23 12:24:13;;;;;;;;;;;;;;;31.31;28.07;100782.81;5059754;28;19947;-85
2023/07/23 12:26:39;;;;;;;;;;;;;;;31.32;28.41;100778.09;5058530;28;20534;-86
2023/07/23 12:29:04;;;;;;;;;;;;;;;31.33;28.13;100774.94;5054254;28;19920;-85